createdAt,value
2019-05-29T00:02:07.945Z,9.10
2019-05-29T00:04:35.335Z,9.00
2019-05-29T00:07:02.718Z,9.00
2019-05-29T00:09:30.434Z,9.00
2019-05-29T00:12:04.443Z,8.90
2019-05-29T00:14:31.855Z,8.90
2019-05-29T00:16:59.323Z,8.90
2019-05-29T00:19:43.927Z,8.80
2019-05-29T00:22:12.344Z,8.80
2019-05-29T00:24:44.166Z,8.80
2019-05-29T00:27:15.533Z,8.70
2019-05-29T00:29:45.269Z,8.70
2019-05-29T00:32:13.470Z,8.70
2019-05-29T00:34:41.071Z,8.70
2019-05-29T00:37:08.584Z,8.60
2019-05-29T00:39:36.186Z,8.60
2019-05-29T00:42:04.014Z,8.50
2019-05-29T00:44:34.283Z,8.60
2019-05-29T00:47:00.903Z,8.50
2019-05-29T00:49:28.335Z,8.40
2019-05-29T00:51:55.828Z,8.40
2019-05-29T00:54:25.763Z,8.40
2019-05-29T00:56:53.217Z,8.30
2019-05-29T00:59:20.661Z,8.40
2019-05-29T01:01:48.349Z,8.40
2019-05-29T01:04:16.068Z,8.30
2019-05-29T01:06:43.481Z,8.30
2019-05-29T01:09:12.288Z,8.20
2019-05-29T01:11:39.720Z,8.20
2019-05-29T01:14:07.234Z,8.20
2019-05-29T01:16:34.696Z,8.20
2019-05-29T01:19:24.369Z,8.20
2019-05-29T01:21:51.910Z,8.20
2019-05-29T01:24:20.533Z,8.20
2019-05-29T01:26:51.175Z,8.20
2019-05-29T01:29:19.491Z,8.20
2019-05-29T01:31:49.126Z,8.10
2019-05-29T01:34:17.599Z,8.20
2019-05-29T01:36:47.353Z,8.20
2019-05-29T01:39:15.138Z,8.20
2019-05-29T01:41:43.114Z,8.30
2019-05-29T01:44:10.513Z,8.30
2019-05-29T01:46:37.968Z,8.40
2019-05-29T01:49:05.486Z,8.40
2019-05-29T01:51:32.975Z,8.30
2019-05-29T01:54:00.850Z,8.40
2019-05-29T01:56:28.304Z,8.40
2019-05-29T01:58:55.667Z,8.30
2019-05-29T02:01:23.982Z,8.30
2019-05-29T02:03:51.437Z,8.20
2019-05-29T02:06:19.875Z,8.20
2019-05-29T02:08:47.466Z,8.10
2019-05-29T02:11:15.076Z,8.10
2019-05-29T02:13:42.712Z,8.00
2019-05-29T02:16:10.120Z,8.00
2019-05-29T02:18:37.863Z,7.90
2019-05-29T02:21:05.566Z,7.80
2019-05-29T02:23:33.278Z,7.70
2019-05-29T02:26:00.756Z,7.70
2019-05-29T02:28:28.454Z,7.70
2019-05-29T02:30:55.920Z,7.60
2019-05-29T02:33:24.215Z,7.60
2019-05-29T02:35:52.980Z,7.60
2019-05-29T02:38:21.150Z,7.50
2019-05-29T02:40:49.913Z,7.50
2019-05-29T02:43:19.260Z,7.50
2019-05-29T02:45:54.134Z,7.40
2019-05-29T02:48:16.251Z,7.40
2019-05-29T02:50:43.803Z,7.30
2019-05-29T02:53:11.527Z,7.30
2019-05-29T02:55:38.915Z,7.30
2019-05-29T02:58:06.616Z,7.20
2019-05-29T03:01:05.336Z,7.20
2019-05-29T03:03:39.158Z,7.20
2019-05-29T03:06:02.232Z,7.20
2019-05-29T03:08:34.977Z,7.10
2019-05-29T03:11:02.551Z,7.10
2019-05-29T03:13:33.691Z,7.10
2019-05-29T03:16:10.727Z,7.10
2019-05-29T03:18:32.572Z,7.00
2019-05-29T03:21:00.932Z,7.00
2019-05-29T03:23:29.125Z,6.90
2019-05-29T03:26:00.345Z,6.90
2019-05-29T03:28:29.964Z,6.90
2019-05-29T03:30:57.875Z,6.90
2019-05-29T03:33:32.483Z,6.90
2019-05-29T03:35:57.119Z,6.90
2019-05-29T03:38:25.935Z,7.00
2019-05-29T03:40:56.583Z,7.10
2019-05-29T03:43:26.143Z,7.10
2019-05-29T03:45:53.780Z,7.10
2019-05-29T03:48:21.514Z,7.20
2019-05-29T03:50:48.946Z,7.30
2019-05-29T03:53:18.279Z,7.30
2019-05-29T03:55:48.413Z,7.30
2019-05-29T03:58:19.111Z,7.30
2019-05-29T04:00:48.763Z,7.30
2019-05-29T04:03:17.560Z,7.30
2019-05-29T04:05:47.043Z,7.30
2019-05-29T04:08:17.261Z,7.30
2019-05-29T04:10:45.287Z,7.40
2019-05-29T04:13:13.251Z,7.60
2019-05-29T04:15:44.817Z,7.70
2019-05-29T04:18:12.575Z,7.80
2019-05-29T04:20:40.858Z,8.00
2019-05-29T04:23:08.359Z,8.10
2019-05-29T04:25:40.643Z,8.30
2019-05-29T04:28:10.824Z,8.40
2019-05-29T04:30:39.202Z,8.60
2019-05-29T04:33:09.428Z,8.70
2019-05-29T04:35:39.388Z,8.90
2019-05-29T04:38:08.174Z,8.90
2019-05-29T04:40:37.223Z,9.00
2019-05-29T04:43:06.322Z,8.90
2019-05-29T04:45:35.365Z,8.90
2019-05-29T04:48:03.030Z,9.00
2019-05-29T04:50:33.410Z,9.10
2019-05-29T04:53:01.793Z,9.40
2019-05-29T04:55:34.809Z,9.90
2019-05-29T04:58:02.294Z,10.60
2019-05-29T05:00:33.120Z,10.70
2019-05-29T05:03:00.630Z,10.20
2019-05-29T05:05:29.296Z,10.00
2019-05-29T05:07:56.749Z,9.90
2019-05-29T05:10:38.151Z,9.60
2019-05-29T05:13:06.088Z,9.50
2019-05-29T05:15:35.902Z,9.50
2019-05-29T05:18:05.450Z,9.40
2019-05-29T05:20:33.924Z,9.30
2019-05-29T05:23:01.385Z,9.30
2019-05-29T05:25:30.010Z,9.30
2019-05-29T05:27:57.423Z,9.30
2019-05-29T05:30:25.090Z,9.50
2019-05-29T05:32:52.511Z,9.80
2019-05-29T05:35:19.979Z,10.20
2019-05-29T05:37:47.435Z,10.30
2019-05-29T05:40:14.905Z,10.80
2019-05-29T05:42:42.344Z,11.90
2019-05-29T05:45:10.353Z,13.40
2019-05-29T05:47:50.351Z,14.60
2019-05-29T05:50:07.561Z,15.40
2019-05-29T05:52:35.302Z,15.10
2019-05-29T05:55:02.774Z,15.40
2019-05-29T05:57:31.494Z,15.60
2019-05-29T05:59:59.015Z,16.00
2019-05-29T06:02:29.419Z,16.40
2019-05-29T06:04:56.769Z,17.20
2019-05-29T06:07:24.477Z,17.50
2019-05-29T06:09:52.183Z,17.70
2019-05-29T06:12:19.631Z,18.20
2019-05-29T06:14:50.671Z,18.70
2019-05-29T06:17:21.649Z,18.40
2019-05-29T06:19:47.644Z,17.80
2019-05-29T06:22:19.879Z,18.50
2019-05-29T06:24:49.663Z,19.20
2019-05-29T06:27:17.101Z,19.30
2019-05-29T06:29:44.573Z,18.40
2019-05-29T06:32:12.307Z,18.30
2019-05-29T06:34:39.727Z,17.90
2019-05-29T06:37:07.212Z,18.70
2019-05-29T06:39:35.549Z,18.60
2019-05-29T06:42:03.094Z,18.60
2019-05-29T06:44:30.550Z,18.60
2019-05-29T06:46:58.019Z,18.40
2019-05-29T06:49:25.475Z,18.30
2019-05-29T06:51:52.990Z,18.20
2019-05-29T06:54:20.444Z,18.30
2019-05-29T06:56:48.086Z,19.00
2019-05-29T06:59:15.767Z,19.20
2019-05-29T07:01:43.549Z,19.40
2019-05-29T07:04:12.492Z,19.80
2019-05-29T07:06:42.711Z,19.60
2019-05-29T07:09:12.552Z,19.60
2019-05-29T07:11:41.251Z,19.00
2019-05-29T07:14:12.486Z,19.90
2019-05-29T07:16:49.975Z,20.20
2019-05-29T07:19:24.729Z,20.10
2019-05-29T07:21:40.809Z,20.70
2019-05-29T07:24:09.428Z,20.20
2019-05-29T07:26:37.226Z,19.70
2019-05-29T07:29:08.443Z,19.60
2019-05-29T07:31:33.938Z,19.80
2019-05-29T07:34:01.435Z,20.00
2019-05-29T07:36:28.975Z,20.90
2019-05-29T07:39:03.379Z,21.00
2019-05-29T07:41:25.994Z,21.30
2019-05-29T07:43:53.731Z,21.80
2019-05-29T07:46:21.170Z,21.80
2019-05-29T07:48:50.325Z,21.90
2019-05-29T07:51:18.021Z,22.10
2019-05-29T07:53:46.447Z,21.80
2019-05-29T07:56:22.522Z,21.90
2019-05-29T07:58:49.203Z,22.30
2019-05-29T08:01:13.969Z,21.30
2019-05-29T08:03:43.467Z,20.60
2019-05-29T08:06:11.566Z,19.80
2019-05-29T08:08:41.818Z,19.20
2019-05-29T08:11:09.477Z,18.60
2019-05-29T08:13:36.851Z,18.20
2019-05-29T08:16:05.376Z,18.80
2019-05-29T08:18:32.853Z,20.00
2019-05-29T08:21:00.638Z,20.60
2019-05-29T08:23:28.072Z,21.10
2019-05-29T08:25:55.502Z,21.30
2019-05-29T08:28:23.035Z,20.70
2019-05-29T08:30:56.050Z,20.40
2019-05-29T08:33:20.230Z,21.10
2019-05-29T08:35:57.929Z,22.20
2019-05-29T08:38:19.502Z,22.30
2019-05-29T08:40:47.446Z,23.00
2019-05-29T08:43:15.174Z,22.90
2019-05-29T08:45:45.621Z,23.60
2019-05-29T08:48:13.592Z,23.30
2019-05-29T08:50:41.549Z,24.40
2019-05-29T08:53:09.279Z,24.30
2019-05-29T08:55:36.742Z,23.90
2019-05-29T08:58:04.218Z,24.00
2019-05-29T09:00:32.197Z,24.40
2019-05-29T09:03:00.190Z,25.10
2019-05-29T09:05:27.674Z,24.80
2019-05-29T09:07:56.428Z,25.30
2019-05-29T09:10:23.879Z,25.30
2019-05-29T09:13:01.823Z,25.20
2019-05-29T09:15:21.869Z,25.70
2019-05-29T09:17:49.426Z,25.90
2019-05-29T09:20:34.066Z,26.90
2019-05-29T09:22:46.596Z,26.70
2019-05-29T09:25:15.415Z,25.80
2019-05-29T09:27:42.850Z,24.50
2019-05-29T09:30:10.434Z,23.60
2019-05-29T09:32:50.520Z,22.90
2019-05-29T09:35:07.374Z,22.60
2019-05-29T09:37:34.795Z,22.70
2019-05-29T09:40:02.413Z,23.60
2019-05-29T09:42:35.018Z,24.60
2019-05-29T09:45:04.006Z,24.60
2019-05-29T09:47:32.928Z,24.10
2019-05-29T09:50:07.531Z,24.00
2019-05-29T09:52:37.994Z,25.50
2019-05-29T09:55:06.474Z,26.40
2019-05-29T09:57:36.005Z,26.70
2019-05-29T10:00:04.268Z,25.30
2019-05-29T10:02:34.270Z,24.60
2019-05-29T10:05:02.952Z,24.10
2019-05-29T10:07:32.803Z,23.00
2019-05-29T10:10:01.091Z,24.00
2019-05-29T10:12:29.799Z,24.70
2019-05-29T10:14:58.814Z,23.40
2019-05-29T10:17:26.821Z,22.30
2019-05-29T10:19:58.922Z,21.90
2019-05-29T10:22:32.505Z,21.80
2019-05-29T10:24:56.875Z,22.10
2019-05-29T10:27:24.995Z,22.10
2019-05-29T10:29:53.167Z,21.70
2019-05-29T10:32:24.684Z,21.60
2019-05-29T10:34:52.709Z,21.20
2019-05-29T10:37:22.919Z,21.10
2019-05-29T10:39:52.902Z,21.40
2019-05-29T10:42:23.796Z,22.80
2019-05-29T10:44:51.378Z,22.90
2019-05-29T10:47:18.781Z,22.60
2019-05-29T10:49:47.543Z,23.80
2019-05-29T10:52:17.422Z,23.70
2019-05-29T10:54:44.379Z,23.10
2019-05-29T10:57:13.881Z,23.10
2019-05-29T10:59:49.136Z,23.40
2019-05-29T11:02:16.557Z,24.10
2019-05-29T11:04:47.587Z,25.90
2019-05-29T11:07:13.225Z,26.40
2019-05-29T11:09:44.318Z,25.30
2019-05-29T11:12:12.352Z,23.90
2019-05-29T11:14:39.808Z,23.40
2019-05-29T11:17:07.407Z,23.70
2019-05-29T11:19:34.938Z,25.20
2019-05-29T11:22:24.717Z,25.30
2019-05-29T11:24:31.562Z,24.80
2019-05-29T11:26:59.111Z,25.80
2019-05-29T11:29:26.879Z,26.20
2019-05-29T11:31:55.041Z,25.30
2019-05-29T11:34:22.473Z,25.00
2019-05-29T11:36:50.021Z,24.40
2019-05-29T11:39:17.734Z,23.30
2019-05-29T11:41:45.191Z,24.30
2019-05-29T11:44:18.142Z,24.00
2019-05-29T11:46:47.155Z,24.90
2019-05-29T11:49:14.794Z,24.80
2019-05-29T11:51:44.378Z,25.00
2019-05-29T11:54:11.955Z,25.10
2019-05-29T11:56:44.292Z,25.10
2019-05-29T11:59:14.719Z,26.80
2019-05-29T12:01:50.333Z,27.60
2019-05-29T12:04:25.706Z,27.50
2019-05-29T12:06:42.069Z,26.00
2019-05-29T12:09:09.722Z,24.40
2019-05-29T12:11:41.435Z,24.20
2019-05-29T12:14:09.173Z,25.40
2019-05-29T12:16:36.595Z,26.30
2019-05-29T12:19:11.436Z,27.20
2019-05-29T12:21:42.546Z,27.40
2019-05-29T12:24:10.715Z,27.40
2019-05-29T12:26:38.451Z,25.40
2019-05-29T12:29:11.522Z,26.40
2019-05-29T12:31:40.275Z,29.10
2019-05-29T12:34:18.819Z,30.90
2019-05-29T12:36:37.809Z,30.50
2019-05-29T12:39:06.986Z,29.60
2019-05-29T12:41:34.478Z,30.10
2019-05-29T12:44:04.451Z,29.40
2019-05-29T12:46:31.964Z,29.60
2019-05-29T12:49:01.590Z,30.70
2019-05-29T12:51:29.250Z,31.50
2019-05-29T12:53:57.902Z,30.00
2019-05-29T12:56:25.396Z,26.90
2019-05-29T12:59:02.786Z,27.40
2019-05-29T13:01:32.106Z,28.20
2019-05-29T13:04:00.471Z,27.60
2019-05-29T13:06:30.431Z,27.70
2019-05-29T13:08:58.459Z,27.90
2019-05-29T13:11:26.032Z,26.90
2019-05-29T13:13:54.348Z,25.80
2019-05-29T13:16:22.094Z,25.10
2019-05-29T13:18:49.533Z,25.40
2019-05-29T13:21:16.988Z,26.20
2019-05-29T13:23:45.769Z,26.80
2019-05-29T13:26:13.551Z,27.00
2019-05-29T13:28:41.020Z,28.30
2019-05-29T13:31:08.662Z,28.50
2019-05-29T13:33:36.141Z,29.20
2019-05-29T13:36:04.511Z,28.90
2019-05-29T13:38:32.105Z,28.30
2019-05-29T13:41:00.396Z,26.80
2019-05-29T13:43:27.925Z,25.90
2019-05-29T13:45:56.295Z,24.90
2019-05-29T13:48:23.754Z,24.70
2019-05-29T13:50:51.190Z,24.30
2019-05-29T13:53:18.571Z,24.40
2019-05-29T13:55:46.275Z,24.50
2019-05-29T13:58:13.873Z,24.00
2019-05-29T14:00:41.323Z,24.00
2019-05-29T14:03:09.334Z,24.10
2019-05-29T14:05:37.115Z,24.80
2019-05-29T14:08:05.016Z,25.20
2019-05-29T14:10:32.369Z,24.80
2019-05-29T14:13:00.971Z,24.60
2019-05-29T14:15:28.519Z,24.10
2019-05-29T14:17:56.320Z,23.70
2019-05-29T14:20:23.744Z,23.30
2019-05-29T14:22:51.219Z,23.20
2019-05-29T14:25:19.420Z,23.60
2019-05-29T14:27:46.889Z,23.90
2019-05-29T14:30:21.447Z,23.90
2019-05-29T14:32:48.939Z,23.90
2019-05-29T14:35:16.560Z,23.70
2019-05-29T14:37:44.114Z,23.40
2019-05-29T14:40:14.215Z,23.40
2019-05-29T14:42:41.704Z,24.10
2019-05-29T14:45:12.595Z,24.30
2019-05-29T14:47:40.739Z,23.90
2019-05-29T14:50:10.968Z,23.70
2019-05-29T14:52:39.266Z,23.20
2019-05-29T14:55:08.781Z,22.90
2019-05-29T14:57:36.746Z,22.80
2019-05-29T15:00:20.963Z,23.10
2019-05-29T15:02:39.390Z,23.20
2019-05-29T15:05:07.983Z,23.50
2019-05-29T15:07:35.439Z,24.20
2019-05-29T15:10:08.669Z,24.40
2019-05-29T15:12:32.598Z,24.60
2019-05-29T15:15:00.461Z,24.50
2019-05-29T15:17:28.217Z,24.30
2019-05-29T15:19:55.668Z,24.40
2019-05-29T15:22:23.180Z,24.10
2019-05-29T15:25:04.185Z,24.20
2019-05-29T15:27:19.873Z,23.90
2019-05-29T15:29:47.275Z,23.40
2019-05-29T15:32:14.787Z,23.30
2019-05-29T15:34:42.260Z,23.10
2019-05-29T15:37:12.196Z,23.10
2019-05-29T15:39:38.920Z,23.30
2019-05-29T15:42:06.864Z,23.40
2019-05-29T15:44:34.920Z,23.20
2019-05-29T15:47:06.857Z,22.80
2019-05-29T15:49:35.047Z,22.20
2019-05-29T15:52:02.542Z,22.30
2019-05-29T15:54:30.037Z,22.80
2019-05-29T15:56:58.658Z,22.70
2019-05-29T15:59:26.183Z,23.00
2019-05-29T16:01:53.654Z,23.10
2019-05-29T16:04:22.793Z,23.20
2019-05-29T16:06:50.633Z,23.20
2019-05-29T16:09:19.307Z,23.20
2019-05-29T16:11:47.064Z,22.90
2019-05-29T16:14:14.977Z,22.70
2019-05-29T16:16:42.504Z,22.20
2019-05-29T16:19:10.394Z,22.20
2019-05-29T16:21:38.698Z,22.10
2019-05-29T16:24:06.126Z,22.20
2019-05-29T16:26:33.829Z,22.30
2019-05-29T16:29:01.339Z,22.50
2019-05-29T16:31:29.111Z,22.70
2019-05-29T16:33:56.899Z,22.60
2019-05-29T16:36:24.367Z,22.80
2019-05-29T16:38:54.189Z,22.70
2019-05-29T16:41:21.994Z,22.40
2019-05-29T16:43:49.493Z,21.90
2019-05-29T16:46:19.284Z,21.60
2019-05-29T16:48:46.650Z,21.40
2019-05-29T16:51:14.576Z,21.40
2019-05-29T16:53:42.122Z,21.30
2019-05-29T16:56:09.591Z,21.20
2019-05-29T16:58:37.042Z,21.10
2019-05-29T17:01:06.879Z,21.10
2019-05-29T17:03:46.820Z,20.90
2019-05-29T17:06:15.785Z,20.90
2019-05-29T17:08:43.766Z,21.00
2019-05-29T17:11:11.230Z,21.10
2019-05-29T17:13:38.729Z,21.10
2019-05-29T17:16:06.192Z,21.10
2019-05-29T17:18:33.653Z,20.90
2019-05-29T17:21:01.423Z,20.80
2019-05-29T17:23:28.854Z,20.80
2019-05-29T17:26:09.739Z,20.70
2019-05-29T17:28:28.344Z,20.70
2019-05-29T17:30:57.476Z,20.70
2019-05-29T17:33:25.246Z,20.60
2019-05-29T17:35:53.029Z,20.60
2019-05-29T17:38:23.369Z,20.50
2019-05-29T17:40:50.860Z,20.50
2019-05-29T17:43:22.002Z,20.30
2019-05-29T17:45:47.999Z,20.30
2019-05-29T17:48:15.772Z,20.30
2019-05-29T17:50:43.506Z,20.20
2019-05-29T17:53:10.991Z,20.20
2019-05-29T17:55:39.849Z,20.20
2019-05-29T17:58:08.830Z,20.20
2019-05-29T18:00:36.352Z,20.10
2019-05-29T18:03:04.394Z,19.90
2019-05-29T18:05:36.801Z,19.90
2019-05-29T18:08:03.981Z,19.80
2019-05-29T18:10:31.442Z,19.80
2019-05-29T18:12:58.790Z,19.80
2019-05-29T18:15:27.515Z,19.70
2019-05-29T18:17:55.381Z,19.60
2019-05-29T18:20:25.847Z,19.60
2019-05-29T18:22:53.393Z,19.60
2019-05-29T18:25:21.926Z,19.60
2019-05-29T18:27:51.712Z,19.50
2019-05-29T18:30:20.180Z,19.50
2019-05-29T18:32:54.063Z,19.50
2019-05-29T18:35:27.056Z,19.30
2019-05-29T18:37:54.610Z,19.30
2019-05-29T18:40:22.480Z,19.30
2019-05-29T18:42:49.960Z,19.20
2019-05-29T18:45:21.622Z,19.00
2019-05-29T18:47:48.077Z,18.90
2019-05-29T18:50:15.881Z,18.90
2019-05-29T18:52:48.462Z,18.80
2019-05-29T18:55:16.155Z,18.60
2019-05-29T18:57:47.951Z,18.50
2019-05-29T19:00:17.020Z,18.30
2019-05-29T19:02:44.758Z,18.20
2019-05-29T19:05:13.588Z,18.10
2019-05-29T19:07:42.438Z,17.90
2019-05-29T19:10:13.632Z,17.90
2019-05-29T19:12:41.419Z,17.80
2019-05-29T19:15:09.403Z,17.80
2019-05-29T19:17:37.550Z,17.70
2019-05-29T19:20:06.209Z,17.70
2019-05-29T19:22:33.609Z,17.70
2019-05-29T19:25:01.063Z,17.50
2019-05-29T19:27:37.442Z,17.30
2019-05-29T19:30:02.352Z,17.30
2019-05-29T19:32:29.824Z,17.40
2019-05-29T19:34:57.331Z,17.40
2019-05-29T19:37:27.913Z,17.40
2019-05-29T19:39:55.474Z,17.30
2019-05-29T19:42:24.090Z,17.30
2019-05-29T19:44:54.682Z,17.30
2019-05-29T19:47:22.059Z,17.30
2019-05-29T19:49:49.517Z,17.40
2019-05-29T19:52:17.275Z,17.40
2019-05-29T19:54:45.049Z,17.40
2019-05-29T19:57:12.782Z,17.30
2019-05-29T19:59:40.193Z,17.20
2019-05-29T20:02:07.929Z,17.20
2019-05-29T20:04:40.611Z,17.20
2019-05-29T20:07:13.942Z,17.20
2019-05-29T20:09:41.706Z,17.20
2019-05-29T20:12:09.510Z,17.20
2019-05-29T20:14:38.090Z,17.20
2019-05-29T20:17:09.778Z,17.20
2019-05-29T20:19:41.022Z,17.20
2019-05-29T20:22:08.818Z,17.20
2019-05-29T20:24:36.884Z,17.20
2019-05-29T20:27:04.442Z,17.10
2019-05-29T20:29:32.363Z,17.10
2019-05-29T20:32:02.117Z,17.00
2019-05-29T20:34:32.451Z,17.10
2019-05-29T20:37:00.464Z,17.00
2019-05-29T20:39:30.211Z,17.00
2019-05-29T20:41:59.341Z,17.00
2019-05-29T20:44:26.802Z,17.00
2019-05-29T20:46:54.166Z,17.00
2019-05-29T20:49:42.183Z,16.90
2019-05-29T20:52:09.807Z,16.80
2019-05-29T20:54:37.699Z,16.90
2019-05-29T20:57:11.164Z,16.80
2019-05-29T20:59:42.492Z,16.80
2019-05-29T21:02:09.964Z,16.80
2019-05-29T21:04:40.570Z,16.70
2019-05-29T21:07:08.679Z,16.70
2019-05-29T21:09:36.915Z,16.70
2019-05-29T21:12:04.390Z,16.60
2019-05-29T21:14:33.489Z,16.60
2019-05-29T21:17:01.096Z,16.60
2019-05-29T21:19:28.487Z,16.50
2019-05-29T21:21:58.019Z,16.60
2019-05-29T21:24:25.821Z,16.60
2019-05-29T21:26:53.513Z,16.60
2019-05-29T21:29:22.985Z,16.60
2019-05-29T21:31:50.464Z,16.60
2019-05-29T21:34:18.182Z,16.50
2019-05-29T21:36:46.370Z,16.50
2019-05-29T21:39:13.907Z,16.50
2019-05-29T21:41:42.479Z,16.50
2019-05-29T21:44:10.261Z,16.50
2019-05-29T21:46:38.744Z,16.50
2019-05-29T21:49:06.547Z,16.50
2019-05-29T21:51:33.974Z,16.50
2019-05-29T21:54:01.485Z,16.50
2019-05-29T21:56:29.246Z,16.50
2019-05-29T21:59:03.501Z,16.50
2019-05-29T22:01:26.340Z,16.50
2019-05-29T22:03:53.687Z,16.40
2019-05-29T22:06:21.431Z,16.40
2019-05-29T22:08:48.857Z,16.30
2019-05-29T22:11:16.658Z,16.30
2019-05-29T22:13:44.086Z,16.30
2019-05-29T22:16:11.807Z,16.30
2019-05-29T22:18:39.531Z,16.30
2019-05-29T22:21:06.939Z,16.40
2019-05-29T22:23:34.721Z,16.30
2019-05-29T22:26:02.062Z,16.30
2019-05-29T22:28:29.501Z,16.30
2019-05-29T22:30:57.362Z,16.30
2019-05-29T22:33:24.783Z,16.30
2019-05-29T22:35:54.017Z,16.20
2019-05-29T22:38:21.861Z,16.30
2019-05-29T22:40:49.351Z,16.30
2019-05-29T22:43:17.031Z,16.30
2019-05-29T22:45:44.357Z,16.30
2019-05-29T22:48:11.821Z,16.20
2019-05-29T22:50:39.538Z,16.20
2019-05-29T22:53:06.986Z,16.10
2019-05-29T22:55:35.756Z,16.10
2019-05-29T22:58:13.636Z,16.10
2019-05-29T23:00:41.194Z,16.10
2019-05-29T23:03:09.991Z,16.10
2019-05-29T23:05:37.414Z,16.10
2019-05-29T23:08:04.860Z,16.10
2019-05-29T23:10:34.859Z,16.10
2019-05-29T23:13:05.943Z,16.00
2019-05-29T23:15:33.893Z,16.00
2019-05-29T23:18:02.435Z,16.00
2019-05-29T23:20:30.421Z,16.00
2019-05-29T23:22:58.614Z,16.10
2019-05-29T23:25:26.075Z,16.10
2019-05-29T23:27:54.810Z,16.00
2019-05-29T23:30:22.679Z,16.00
2019-05-29T23:32:53.345Z,16.00
2019-05-29T23:35:20.782Z,16.00
2019-05-29T23:37:48.225Z,15.90
2019-05-29T23:40:15.588Z,16.00
2019-05-29T23:42:43.034Z,15.90
2019-05-29T23:45:10.851Z,16.00
2019-05-29T23:47:38.598Z,16.00
2019-05-29T23:50:07.819Z,16.00
2019-05-29T23:52:37.248Z,15.90
2019-05-29T23:55:04.810Z,15.90
2019-05-29T23:57:38.091Z,15.90
